createdAt,value
2023-03-06T06:59:54.164Z,26.00
2023-03-06T07:00:53.567Z,23.00
2023-03-06T07:01:53.596Z,24.00
2023-03-06T07:02:53.558Z,34.00
2023-03-06T07:03:53.657Z,27.00
2023-03-06T07:05:03.585Z,29.00
2023-03-06T07:05:53.516Z,25.00
2023-03-06T07:06:53.446Z,32.00
2023-03-06T07:07:53.498Z,33.00
2023-03-06T07:08:53.425Z,30.00
2023-03-06T07:09:53.466Z,21.00
2023-03-06T07:10:53.433Z,15.00
2023-03-06T07:11:53.448Z,18.00
2023-03-06T07:12:53.374Z,20.00
2023-03-06T07:13:53.422Z,17.00
2023-03-06T07:14:53.351Z,20.00
2023-03-06T07:15:53.624Z,26.00
2023-03-06T07:16:53.334Z,28.00
2023-03-06T07:17:53.371Z,23.00
2023-03-06T07:18:53.328Z,30.00
2023-03-06T07:19:53.350Z,38.00
2023-03-06T07:20:53.285Z,38.00
2023-03-06T07:21:53.339Z,43.00
2023-03-06T07:22:53.265Z,40.00
2023-03-06T07:23:53.304Z,32.00
2023-03-06T07:24:53.251Z,27.00
2023-03-06T07:25:53.285Z,26.00
2023-03-06T07:26:53.231Z,29.00
2023-03-06T07:27:54.342Z,27.00
2023-03-06T07:28:53.279Z,30.00
2023-03-06T07:29:53.239Z,28.00
2023-03-06T07:30:53.196Z,43.00
2023-03-06T07:31:53.222Z,42.00
2023-03-06T07:32:53.154Z,43.00
2023-03-06T07:33:53.207Z,37.00
2023-03-06T07:34:58.392Z,43.00
2023-03-06T07:35:53.331Z,67.00
2023-03-06T07:36:53.116Z,79.00
2023-03-06T07:37:53.180Z,27.00
2023-03-06T07:38:53.095Z,201.00
2023-03-06T07:39:53.140Z,84.00
2023-03-06T07:40:53.075Z,85.00
2023-03-06T07:41:53.119Z,80.00
2023-03-06T07:42:53.050Z,74.00
2023-03-06T07:43:53.090Z,59.00
2023-03-06T07:44:53.059Z,69.00
2023-03-06T07:45:53.064Z,76.00
2023-03-06T07:46:53.118Z,72.00
2023-03-06T07:47:53.057Z,65.00
2023-03-06T07:48:52.983Z,86.00
2023-03-06T07:49:53.025Z,101.00
2023-03-06T07:50:52.963Z,89.00
2023-03-06T07:51:53.001Z,91.00
2023-03-06T07:52:52.942Z,91.00
2023-03-06T07:53:52.991Z,78.00
2023-03-06T07:54:52.923Z,69.00
2023-03-06T07:55:53.975Z,69.00
2023-03-06T07:56:52.964Z,76.00
2023-03-06T07:57:52.878Z,45.00
2023-03-06T07:58:52.952Z,84.00
2023-03-06T07:59:52.853Z,123.00
2023-03-06T08:00:52.928Z,109.00
2023-03-06T08:01:52.832Z,73.00
2023-03-06T08:02:52.997Z,109.00
2023-03-06T08:03:52.886Z,27.00
2023-03-06T08:04:52.936Z,113.00
2023-03-06T08:05:52.789Z,135.00
2023-03-06T08:06:52.861Z,118.00
2023-03-06T08:07:52.765Z,128.00
2023-03-06T08:08:52.840Z,156.00
2023-03-06T08:09:52.743Z,132.00
2023-03-06T08:10:52.820Z,114.00
2023-03-06T08:11:52.720Z,105.00
2023-03-06T08:12:52.793Z,59.00
2023-03-06T08:13:52.868Z,47.00
2023-03-06T08:14:52.758Z,54.00
2023-03-06T08:15:52.674Z,49.00
2023-03-06T08:16:52.748Z,65.00
2023-03-06T08:17:52.659Z,95.00
2023-03-06T08:18:52.713Z,74.00
2023-03-06T08:19:52.635Z,55.00
2023-03-06T08:20:52.693Z,60.00
2023-03-06T08:21:52.610Z,91.00
2023-03-06T08:22:52.699Z,103.00
2023-03-06T08:23:52.603Z,101.00
2023-03-06T08:24:52.657Z,85.00
2023-03-06T08:25:52.570Z,148.00
2023-03-06T08:26:52.626Z,134.00
2023-03-06T08:27:52.566Z,203.00
2023-03-06T08:28:52.612Z,153.00
2023-03-06T08:29:52.515Z,148.00
2023-03-06T08:30:52.607Z,102.00
2023-03-06T08:31:52.603Z,96.00
2023-03-06T08:32:52.579Z,132.00
2023-03-06T08:33:52.471Z,137.00
2023-03-06T08:34:52.536Z,147.00
2023-03-06T08:35:52.624Z,85.00
2023-03-06T08:36:52.527Z,104.00
2023-03-06T08:37:52.432Z,144.00
2023-03-06T08:38:52.526Z,103.00
2023-03-06T08:39:52.427Z,147.00
2023-03-06T08:40:52.509Z,215.00
2023-03-06T08:41:52.390Z,172.00
2023-03-06T08:42:52.467Z,147.00
2023-03-06T08:43:52.380Z,100.00
2023-03-06T08:44:52.438Z,105.00
2023-03-06T08:45:52.362Z,133.00
2023-03-06T08:46:52.403Z,149.00
2023-03-06T08:47:52.315Z,140.00
2023-03-06T08:48:52.406Z,136.00
2023-03-06T08:49:52.306Z,126.00
2023-03-06T08:50:52.372Z,227.00
2023-03-06T08:51:52.277Z,324.00
2023-03-06T08:52:52.341Z,320.00
2023-03-06T08:53:52.250Z,693.00
2023-03-06T08:54:52.322Z,521.00
2023-03-06T08:55:52.231Z,311.00
2023-03-06T08:56:52.308Z,327.00
2023-03-06T08:57:52.204Z,485.00
2023-03-06T08:58:52.476Z,668.00
2023-03-06T08:59:52.181Z,607.00
2023-03-06T09:00:52.339Z,556.00
2023-03-06T09:01:52.180Z,495.00
2023-03-06T09:02:52.234Z,393.00
2023-03-06T09:03:52.146Z,303.00
2023-03-06T09:04:52.203Z,184.00
2023-03-06T09:05:52.122Z,78.00
2023-03-06T09:06:53.924Z,53.00
2023-03-06T09:07:52.220Z,156.00
2023-03-06T09:08:52.103Z,110.00
2023-03-06T09:09:52.142Z,116.00
2023-03-06T09:10:52.113Z,90.00
2023-03-06T09:11:52.114Z,71.00
2023-03-06T09:12:54.493Z,54.00
2023-03-06T09:13:52.103Z,70.00
2023-03-06T09:14:52.027Z,69.00
2023-03-06T09:15:52.098Z,52.00
2023-03-06T09:16:52.058Z,36.00
2023-03-06T09:17:52.100Z,65.00
2023-03-06T09:18:51.987Z,93.00
2023-03-06T09:19:52.030Z,96.00
2023-03-06T09:20:51.968Z,109.00
2023-03-06T09:21:52.022Z,127.00
2023-03-06T09:22:51.967Z,149.00
2023-03-06T09:23:52.116Z,158.00
2023-03-06T09:24:51.921Z,154.00
2023-03-06T09:25:52.009Z,161.00
2023-03-06T09:26:51.935Z,176.00
2023-03-06T09:28:05.344Z,172.00
2023-03-06T09:28:51.888Z,147.00
2023-03-06T09:29:51.944Z,159.00
2023-03-06T09:30:51.876Z,185.00
2023-03-06T09:31:51.912Z,237.00
2023-03-06T09:32:51.836Z,288.00
2023-03-06T09:33:51.877Z,305.00
2023-03-06T09:34:51.814Z,282.00
2023-03-06T09:35:51.954Z,279.00
2023-03-06T09:36:57.080Z,297.00
2023-03-06T09:37:51.847Z,262.00
2023-03-06T09:38:51.775Z,243.00
2023-03-06T09:39:51.822Z,213.00
2023-03-06T09:40:51.764Z,222.00
2023-03-06T09:41:51.795Z,282.00
2023-03-06T09:42:51.731Z,281.00
2023-03-06T09:43:51.767Z,306.00
2023-03-06T09:44:51.706Z,366.00
2023-03-06T09:45:51.988Z,334.00
2023-03-06T09:46:51.684Z,355.00
2023-03-06T09:47:51.898Z,432.00
2023-03-06T09:48:51.645Z,444.00
2023-03-06T09:49:51.727Z,487.00
2023-03-06T09:50:51.628Z,523.00
2023-03-06T09:51:51.698Z,476.00
2023-03-06T09:52:51.603Z,422.00
2023-03-06T09:53:51.665Z,495.00
2023-03-06T09:54:51.577Z,588.00
2023-03-06T09:55:51.643Z,634.00
2023-03-06T09:56:51.552Z,605.00
2023-03-06T09:57:52.370Z,462.00
2023-03-06T09:58:51.558Z,488.00
2023-03-06T09:59:51.616Z,575.00
2023-03-06T10:00:51.508Z,615.00
2023-03-06T10:01:51.587Z,624.00
2023-03-06T10:02:51.590Z,646.00
2023-03-06T10:03:51.559Z,754.00
2023-03-06T10:04:51.505Z,735.00
2023-03-06T10:05:51.545Z,946.00
2023-03-06T10:06:51.442Z,786.00
2023-03-06T10:07:51.518Z,825.00
2023-03-06T10:08:51.424Z,749.00
2023-03-06T10:09:51.492Z,653.00
2023-03-06T10:10:51.402Z,656.00
2023-03-06T10:11:51.487Z,667.00
2023-03-06T10:12:51.375Z,640.00
2023-03-06T10:13:51.641Z,587.00
2023-03-06T10:14:51.384Z,533.00
2023-03-06T10:15:51.453Z,537.00
2023-03-06T10:16:51.336Z,649.00
2023-03-06T10:17:51.412Z,572.00
2023-03-06T10:18:51.311Z,620.00
2023-03-06T10:19:51.386Z,668.00
2023-03-06T10:20:51.294Z,709.00
2023-03-06T10:21:51.366Z,682.00
2023-03-06T10:23:00.637Z,656.00
2023-03-06T10:23:51.332Z,730.00
2023-03-06T10:24:51.247Z,725.00
2023-03-06T10:25:51.345Z,754.00
2023-03-06T10:26:51.422Z,595.00
2023-03-06T10:27:51.298Z,723.00
2023-03-06T10:28:51.207Z,871.00
2023-03-06T10:30:02.012Z,566.00
2023-03-06T10:30:51.193Z,936.00
2023-03-06T10:31:51.276Z,511.00
2023-03-06T10:32:51.251Z,596.00
2023-03-06T10:33:51.232Z,532.00
2023-03-06T10:34:51.136Z,552.00
2023-03-06T10:35:51.270Z,532.00
2023-03-06T10:36:51.142Z,527.00
2023-03-06T10:37:51.214Z,613.00
2023-03-06T10:38:51.100Z,557.00
2023-03-06T10:39:51.168Z,548.00
2023-03-06T10:40:51.071Z,630.00
2023-03-06T10:41:51.151Z,592.00
2023-03-06T10:42:58.733Z,622.00
2023-03-06T10:43:51.114Z,603.00
2023-03-06T10:44:51.032Z,590.00
2023-03-06T10:45:51.111Z,583.00
2023-03-06T10:46:51.035Z,540.00
2023-03-06T10:47:51.084Z,508.00
2023-03-06T10:48:50.984Z,457.00
2023-03-06T10:49:51.058Z,576.00
2023-03-06T10:50:50.959Z,563.00
2023-03-06T10:51:51.026Z,580.00
2023-03-06T10:52:50.953Z,560.00
2023-03-06T10:53:51.011Z,581.00
2023-03-06T10:54:50.926Z,678.00
2023-03-06T10:55:50.989Z,613.00
2023-03-06T10:56:50.905Z,661.00
2023-03-06T10:57:50.966Z,560.00
2023-03-06T10:58:50.881Z,546.00
2023-03-06T10:59:50.939Z,572.00
2023-03-06T11:00:50.855Z,481.00
2023-03-06T11:01:50.949Z,429.00
2023-03-06T11:02:50.830Z,249.00
2023-03-06T11:03:50.896Z,700.00
2023-03-06T11:04:50.928Z,846.00
2023-03-06T11:05:50.869Z,859.00
2023-03-06T11:06:50.788Z,982.00
2023-03-06T11:07:50.846Z,998.00
2023-03-06T11:08:50.768Z,915.00
2023-03-06T11:09:50.826Z,874.00
2023-03-06T11:10:50.739Z,817.00
2023-03-06T11:11:50.819Z,793.00
2023-03-06T11:12:50.722Z,853.00
2023-03-06T11:13:50.789Z,831.00
2023-03-06T11:14:50.704Z,832.00
2023-03-06T11:15:50.849Z,826.00
2023-03-06T11:16:50.678Z,795.00
2023-03-06T11:17:50.744Z,769.00
2023-03-06T11:18:50.682Z,737.00
2023-03-06T11:19:50.713Z,739.00
2023-03-06T11:20:52.833Z,782.00
2023-03-06T11:21:50.709Z,664.00
2023-03-06T11:22:50.606Z,685.00
2023-03-06T11:23:50.681Z,691.00
2023-03-06T11:24:50.601Z,702.00
2023-03-06T11:25:50.657Z,707.00
2023-03-06T11:26:51.289Z,699.00
2023-03-06T11:27:50.904Z,663.00
2023-03-06T11:28:50.605Z,675.00
2023-03-06T11:29:50.613Z,678.00
2023-03-06T11:30:50.519Z,730.00
2023-03-06T11:31:50.589Z,687.00
2023-03-06T11:32:50.492Z,609.00
2023-03-06T11:33:50.564Z,529.00
2023-03-06T11:34:50.870Z,454.00
2023-03-06T11:35:50.629Z,633.00
2023-03-06T11:36:50.450Z,611.00
2023-03-06T11:37:50.542Z,710.00
2023-03-06T11:38:50.445Z,702.00
2023-03-06T11:39:50.510Z,697.00
2023-03-06T11:40:50.407Z,773.00
2023-03-06T11:41:50.469Z,608.00
2023-03-06T11:42:50.388Z,614.00
2023-03-06T11:43:50.445Z,597.00
2023-03-06T11:44:50.364Z,625.00
2023-03-06T11:45:50.422Z,609.00
2023-03-06T11:46:50.363Z,568.00
2023-03-06T11:47:50.407Z,553.00
2023-03-06T11:48:50.317Z,736.00
2023-03-06T11:49:50.582Z,606.00
2023-03-06T11:50:50.293Z,640.00
2023-03-06T11:51:50.365Z,458.00
2023-03-06T11:52:50.271Z,408.00
2023-03-06T11:53:50.947Z,280.00
2023-03-06T11:54:50.247Z,487.00
2023-03-06T11:55:50.318Z,470.00
2023-03-06T11:56:50.230Z,427.00
2023-03-06T11:57:50.301Z,413.00
2023-03-06T11:58:50.208Z,379.00
2023-03-06T11:59:50.281Z,387.00
2023-03-06T12:00:50.193Z,421.00
2023-03-06T12:01:50.347Z,421.00
2023-03-06T12:02:50.184Z,432.00
2023-03-06T12:03:50.231Z,505.00
2023-03-06T12:04:50.147Z,504.00
2023-03-06T12:05:50.215Z,530.00
2023-03-06T12:06:50.119Z,578.00
2023-03-06T12:07:50.192Z,568.00
2023-03-06T12:08:50.109Z,585.00
2023-03-06T12:09:50.163Z,564.00
2023-03-06T12:10:51.833Z,536.00
2023-03-06T12:11:50.150Z,571.00
2023-03-06T12:12:50.614Z,586.00
2023-03-06T12:13:50.140Z,598.00
2023-03-06T12:14:50.068Z,622.00
2023-03-06T12:15:50.298Z,533.00
2023-03-06T12:16:50.076Z,564.00
2023-03-06T12:17:50.078Z,460.00
2023-03-06T12:18:49.993Z,412.00
2023-03-06T12:19:50.152Z,514.00
2023-03-06T12:20:49.970Z,424.00
2023-03-06T12:21:50.037Z,398.00
2023-03-06T12:22:58.043Z,336.00
2023-03-06T12:23:50.101Z,288.00
2023-03-06T12:24:49.921Z,254.00
2023-03-06T12:25:49.987Z,235.00
2023-03-06T12:26:49.912Z,224.00
2023-03-06T12:27:49.960Z,218.00
2023-03-06T12:28:49.877Z,215.00
2023-03-06T12:29:49.948Z,197.00
2023-03-06T12:30:49.875Z,180.00
2023-03-06T12:31:49.988Z,177.00
2023-03-06T12:32:49.928Z,174.00
2023-03-06T12:33:49.903Z,192.00
2023-03-06T12:34:49.810Z,202.00
2023-03-06T12:35:50.080Z,179.00
2023-03-06T12:36:49.786Z,256.00
2023-03-06T12:37:49.856Z,186.00
2023-03-06T12:38:49.763Z,295.00
2023-03-06T12:39:49.831Z,217.00
2023-03-06T12:40:49.803Z,201.00
2023-03-06T12:41:49.806Z,205.00
2023-03-06T12:42:49.728Z,280.00
2023-03-06T12:43:49.818Z,291.00
2023-03-06T12:44:49.698Z,288.00
2023-03-06T12:45:49.900Z,313.00
2023-03-06T12:46:49.685Z,349.00
2023-03-06T12:47:49.749Z,299.00
2023-03-06T12:48:49.660Z,307.00
2023-03-06T12:49:49.717Z,325.00
2023-03-06T12:50:49.632Z,333.00
2023-03-06T12:51:49.714Z,347.00
2023-03-06T12:52:49.622Z,374.00
2023-03-06T12:53:49.679Z,386.00
2023-03-06T12:54:49.594Z,399.00
2023-03-06T12:55:49.769Z,422.00
2023-03-06T12:56:49.581Z,455.00
2023-03-06T12:57:49.661Z,476.00
2023-03-06T12:58:49.548Z,478.00
2023-03-06T12:59:49.669Z,515.00
2023-03-06T13:00:52.627Z,549.00
2023-03-06T13:01:49.648Z,574.00
2023-03-06T13:02:49.595Z,593.00
2023-03-06T13:03:49.595Z,609.00
2023-03-06T13:04:49.480Z,621.00
2023-03-06T13:05:49.556Z,626.00
2023-03-06T13:06:51.446Z,628.00
2023-03-06T13:07:49.544Z,623.00
2023-03-06T13:08:49.439Z,609.00
2023-03-06T13:09:49.511Z,595.00
2023-03-06T13:10:49.413Z,583.00
2023-03-06T13:11:49.485Z,554.00
2023-03-06T13:12:49.395Z,525.00
2023-03-06T13:13:49.478Z,495.00
2023-03-06T13:14:54.661Z,475.00
2023-03-06T13:15:49.436Z,460.00
2023-03-06T13:16:49.428Z,461.00
2023-03-06T13:17:49.426Z,442.00
2023-03-06T13:18:49.328Z,442.00
2023-03-06T13:19:49.410Z,439.00
2023-03-06T13:20:49.347Z,437.00
2023-03-06T13:21:49.369Z,418.00
2023-03-06T13:22:49.308Z,412.00
2023-03-06T13:23:49.364Z,407.00
2023-03-06T13:24:52.501Z,395.00
2023-03-06T13:25:49.387Z,384.00
2023-03-06T13:26:49.235Z,390.00
2023-03-06T13:27:49.359Z,404.00
2023-03-06T13:28:49.217Z,414.00
2023-03-06T13:29:49.396Z,406.00
2023-03-06T13:30:51.383Z,409.00
2023-03-06T13:31:49.268Z,411.00
2023-03-06T13:32:49.168Z,405.00
2023-03-06T13:33:49.245Z,382.00
2023-03-06T13:34:49.186Z,349.00
2023-03-06T13:35:49.229Z,312.00
2023-03-06T13:36:49.127Z,279.00
2023-03-06T13:37:49.202Z,248.00
2023-03-06T13:38:49.102Z,225.00
2023-03-06T13:39:49.164Z,239.00
2023-03-06T13:40:49.092Z,255.00
2023-03-06T13:41:49.166Z,233.00
2023-03-06T13:42:49.054Z,243.00
2023-03-06T13:43:49.130Z,227.00
2023-03-06T13:44:49.084Z,266.00
2023-03-06T13:45:49.132Z,294.00
2023-03-06T13:46:49.014Z,295.00
2023-03-06T13:48:14.137Z,292.00
2023-03-06T13:48:49.672Z,291.00
2023-03-06T13:49:49.079Z,316.00
2023-03-06T13:50:49.027Z,348.00
2023-03-06T13:51:49.039Z,365.00
2023-03-06T13:52:48.947Z,444.00
2023-03-06T13:53:49.070Z,435.00
2023-03-06T13:54:48.937Z,438.00
2023-03-06T13:55:48.999Z,455.00
2023-03-06T13:56:48.903Z,457.00
2023-03-06T13:57:48.999Z,426.00
2023-03-06T13:58:48.910Z,430.00
2023-03-06T13:59:50.508Z,423.00
2023-03-06T14:00:48.857Z,433.00
2023-03-06T14:01:49.019Z,434.00
2023-03-06T14:02:48.916Z,465.00
2023-03-06T14:03:48.887Z,455.00
2023-03-06T14:04:48.824Z,445.00
2023-03-06T14:05:48.985Z,478.00
2023-03-06T14:06:48.813Z,478.00
2023-03-06T14:07:48.839Z,437.00
2023-03-06T14:08:48.777Z,439.00
2023-03-06T14:09:49.830Z,424.00
2023-03-06T14:10:48.827Z,412.00
2023-03-06T14:11:48.731Z,398.00
2023-03-06T14:12:48.824Z,410.00
2023-03-06T14:13:48.710Z,410.00
2023-03-06T14:14:48.776Z,405.00
2023-03-06T14:15:48.748Z,414.00
2023-03-06T14:16:50.402Z,414.00
2023-03-06T14:17:48.666Z,411.00
2023-03-06T14:18:48.738Z,407.00
2023-03-06T14:19:48.650Z,401.00
2023-03-06T14:20:48.706Z,396.00
2023-03-06T14:21:48.627Z,401.00
2023-03-06T14:22:48.713Z,378.00
2023-03-06T14:23:48.597Z,365.00
2023-03-06T14:24:48.672Z,379.00
2023-03-06T14:25:48.578Z,399.00
2023-03-06T14:26:48.657Z,386.00
2023-03-06T14:27:48.555Z,380.00
2023-03-06T14:28:48.629Z,389.00
2023-03-06T14:29:48.536Z,386.00
2023-03-06T14:30:48.607Z,399.00
2023-03-06T14:31:48.510Z,387.00
2023-03-06T14:32:48.594Z,381.00
2023-03-06T14:33:48.495Z,372.00
2023-03-06T14:34:48.559Z,358.00
2023-03-06T14:35:48.571Z,352.00
2023-03-06T14:36:48.538Z,352.00
2023-03-06T14:37:48.464Z,353.00
2023-03-06T14:38:48.557Z,344.00
2023-03-06T14:39:48.429Z,338.00
2023-03-06T14:40:48.500Z,324.00
2023-03-06T14:41:48.409Z,318.00
2023-03-06T14:42:48.479Z,309.00
2023-03-06T14:43:48.424Z,310.00
2023-03-06T14:44:48.457Z,317.00
2023-03-06T14:45:48.358Z,319.00
2023-03-06T14:46:48.770Z,318.00
2023-03-06T14:47:48.355Z,330.00
2023-03-06T14:48:48.430Z,323.00
2023-03-06T14:49:48.326Z,323.00
2023-03-06T14:50:48.386Z,314.00
2023-03-06T14:51:48.298Z,310.00
2023-03-06T14:52:48.396Z,311.00
2023-03-06T14:53:48.280Z,310.00
2023-03-06T14:54:48.358Z,303.00
2023-03-06T14:55:48.267Z,299.00
2023-03-06T14:56:48.332Z,296.00
2023-03-06T14:57:48.237Z,300.00
2023-03-06T14:58:48.296Z,301.00
2023-03-06T14:59:48.220Z,301.00
2023-03-06T15:00:48.326Z,295.00
2023-03-06T15:01:48.233Z,288.00
2023-03-06T15:02:48.293Z,285.00
2023-03-06T15:03:48.169Z,272.00
2023-03-06T15:04:48.243Z,276.00
2023-03-06T15:05:48.176Z,284.00
2023-03-06T15:06:48.253Z,285.00
2023-03-06T15:07:48.124Z,278.00
2023-03-06T15:08:48.205Z,273.00
2023-03-06T15:09:48.102Z,268.00
2023-03-06T15:10:48.169Z,267.00
2023-03-06T15:11:48.077Z,271.00
2023-03-06T15:12:48.148Z,281.00
2023-03-06T15:13:48.052Z,288.00
2023-03-06T15:14:48.129Z,284.00
2023-03-06T15:15:48.028Z,289.00
2023-03-06T15:16:48.102Z,285.00
2023-03-06T15:17:48.012Z,280.00
2023-03-06T15:18:48.074Z,276.00
2023-03-06T15:19:47.985Z,276.00
2023-03-06T15:20:48.051Z,276.00
2023-03-06T15:21:47.962Z,280.00
2023-03-06T15:22:48.029Z,284.00
2023-03-06T15:23:47.948Z,276.00
2023-03-06T15:24:48.007Z,266.00
2023-03-06T15:25:47.917Z,266.00
2023-03-06T15:26:47.984Z,260.00
2023-03-06T15:27:47.898Z,253.00
2023-03-06T15:28:50.311Z,245.00
2023-03-06T15:29:47.874Z,256.00
2023-03-06T15:30:47.940Z,270.00
2023-03-06T15:31:47.906Z,279.00
2023-03-06T15:32:47.929Z,279.00
2023-03-06T15:33:47.831Z,284.00
2023-03-06T15:34:47.905Z,280.00
2023-03-06T15:35:47.839Z,272.00
2023-03-06T15:36:47.884Z,263.00
2023-03-06T15:37:47.784Z,258.00
2023-03-06T15:38:47.879Z,254.00
2023-03-06T15:39:47.766Z,250.00
2023-03-06T15:40:47.830Z,254.00
2023-03-06T15:41:47.745Z,251.00
2023-03-06T15:42:47.809Z,250.00
2023-03-06T15:43:47.722Z,246.00
2023-03-06T15:44:47.798Z,240.00
2023-03-06T15:45:47.757Z,238.00
2023-03-06T15:46:49.974Z,235.00
2023-03-06T15:47:47.695Z,237.00
2023-03-06T15:48:47.754Z,237.00
2023-03-06T15:49:47.660Z,235.00
2023-03-06T15:50:47.847Z,233.00
2023-03-06T15:51:47.638Z,237.00
2023-03-06T15:52:47.716Z,235.00
2023-03-06T15:53:47.617Z,232.00
2023-03-06T15:54:47.691Z,220.00
2023-03-06T15:55:47.635Z,216.00
2023-03-06T15:56:47.672Z,209.00
2023-03-06T15:57:47.602Z,203.00
2023-03-06T15:58:47.671Z,197.00
2023-03-06T15:59:47.555Z,191.00
2023-03-06T16:00:47.644Z,187.00
2023-03-06T16:01:47.537Z,182.00
2023-03-06T16:02:47.681Z,177.00
2023-03-06T16:03:47.549Z,175.00
2023-03-06T16:04:47.572Z,182.00
2023-03-06T16:05:47.515Z,191.00
2023-03-06T16:06:47.548Z,191.00
2023-03-06T16:07:47.466Z,187.00
2023-03-06T16:08:47.578Z,178.00
2023-03-06T16:09:47.441Z,169.00
2023-03-06T16:10:47.506Z,166.00
2023-03-06T16:11:47.448Z,161.00
2023-03-06T16:12:48.378Z,163.00
2023-03-06T16:13:47.397Z,155.00
2023-03-06T16:14:47.471Z,153.00
2023-03-06T16:15:47.392Z,149.00
2023-03-06T16:16:47.485Z,151.00
2023-03-06T16:17:47.352Z,149.00
2023-03-06T16:18:47.427Z,149.00
2023-03-06T16:19:47.335Z,145.00
2023-03-06T16:20:47.418Z,145.00
2023-03-06T16:21:47.308Z,144.00
2023-03-06T16:22:47.381Z,135.00
2023-03-06T16:23:47.286Z,132.00
2023-03-06T16:24:47.365Z,125.00
2023-03-06T16:25:48.502Z,127.00
2023-03-06T16:26:47.326Z,127.00
2023-03-06T16:27:47.241Z,131.00
2023-03-06T16:28:47.301Z,135.00
2023-03-06T16:29:47.217Z,130.00
2023-03-06T16:30:47.322Z,124.00
2023-03-06T16:31:47.192Z,115.00
2023-03-06T16:32:47.300Z,106.00
2023-03-06T16:33:47.170Z,101.00
2023-03-06T16:34:47.252Z,94.00
2023-03-06T16:35:47.183Z,87.00
2023-03-06T16:36:47.226Z,80.00
2023-03-06T16:37:47.126Z,78.00
2023-03-06T16:38:47.272Z,77.00
2023-03-06T16:39:47.106Z,78.00
2023-03-06T16:40:47.183Z,74.00
2023-03-06T16:41:47.083Z,73.00
2023-03-06T16:42:47.156Z,69.00
2023-03-06T16:43:47.062Z,69.00
2023-03-06T16:44:47.133Z,66.00
2023-03-06T16:45:47.085Z,59.00
2023-03-06T16:46:47.280Z,51.00
2023-03-06T16:47:47.014Z,45.00
2023-03-06T16:48:47.085Z,44.00
2023-03-06T16:49:47.040Z,42.00
2023-03-06T16:50:47.067Z,36.00
2023-03-06T16:51:46.984Z,33.00
2023-03-06T16:52:47.041Z,33.00
2023-03-06T16:53:46.954Z,27.00
2023-03-06T16:54:47.015Z,23.00
2023-03-06T16:55:46.930Z,26.00
2023-03-06T16:56:47.007Z,23.00
2023-03-06T16:57:46.909Z,18.00
2023-03-06T16:58:46.979Z,13.00
2023-03-06T16:59:46.889Z,11.00
2023-03-06T17:00:46.962Z,6.00
2023-03-06T17:01:46.936Z,7.00
2023-03-06T17:02:47.011Z,4.00
2023-03-06T17:03:46.863Z,3.00
2023-03-06T17:04:46.915Z,3.00
2023-03-06T17:05:46.821Z,1.00
2023-03-06T17:06:46.894Z,3.00
2023-03-06T17:07:46.808Z,3.00
2023-03-06T17:08:46.879Z,5.00
2023-03-06T17:09:46.775Z,5.00
2023-03-06T17:10:50.121Z,3.00
2023-03-06T17:11:47.000Z,2.00
2023-03-06T17:12:46.756Z,2.00
2023-03-06T17:13:46.806Z,2.00
2023-03-06T17:14:46.734Z,2.00
2023-03-06T17:15:46.793Z,2.00
2023-03-06T17:16:46.727Z,2.00
2023-03-06T17:17:46.883Z,2.00
2023-03-06T17:18:46.689Z,2.00
2023-03-06T17:19:46.729Z,2.00
2023-03-06T17:20:46.669Z,1.00
2023-03-06T17:21:46.709Z,1.00
2023-03-06T17:22:46.643Z,1.00
2023-03-06T17:23:46.691Z,1.00
2023-03-06T17:24:46.623Z,1.00
2023-03-06T17:25:46.665Z,1.00
2023-03-06T17:26:46.753Z,1.00
2023-03-06T17:27:46.579Z,1.00
2023-03-06T17:28:46.688Z,1.00
2023-03-06T17:29:46.556Z,1.00
2023-03-06T17:30:46.676Z,1.00
